Flight Track Log - Related Links

Times and Time Zones

All times are in EDT time to prevent confusion due to time zone crossing. See the CEY413 flight status page for this flight to view local times or setup timezone preferences in your user account.

Time Position Orientation Groundspeed Altitude Reporting Facility
EDT Latitude Longitude Course Direction KTS MPH feet Rate Location/Type
Tue 06:53:02 PM 18.3333 -69.6167 96° East 380 437 32,200  Level San Juan Center
Tue 06:54:02 PM 18.3167 -69.4833 97° East 390 449 32,300 200 Climbing San Juan Center
Tue 06:55:02 PM 18.3000 -69.3833 100° East 390 449 32,600 347 Climbing San Juan Center
Tue 06:56:03 PM 18.2833 -69.2667 99° East 380 437 33,000 198 Climbing San Juan Center
Tue 06:57:03 PM 18.2833 -69.1500 90° East 390 449 33,000  Level San Juan Center
Tue 06:58:00 PM 18.1993 -69.0036 96° East  Level Estimated
Tue 06:58:03 PM 18.2833 -69.0500 90° East 390 449 33,000  Level San Juan Center
Tue 06:59:04 PM 18.2833 -68.9333 90° East 410 472 33,000  Level San Juan Center
Tue 07:00:04 PM 18.2667 -68.8167 99° East 410 472 33,000  Level San Juan Center
Tue 07:01:04 PM 18.2500 -68.7000 99° East 400 460 33,000  Level San Juan Center
Tue 07:02:04 PM 18.2500 -68.5833 90° East 410 472 33,000  Level San Juan Center
Tue 07:03:04 PM 18.2333 -68.4500 97° East 410 472 33,000  Level San Juan Center
Tue 07:04:05 PM 18.2333 -68.3333 90° East 410 472 33,000  Level San Juan Center
Tue 07:05:05 PM 18.2167 -68.2167 99° East 410 472 33,000  Level San Juan Center
Tue 07:06:05 PM 18.2167 -68.1000 90° East 400 460 33,000  Level San Juan Center
Tue 07:07:06 PM 18.2000 -67.9833 99° East 410 472 33,000  Level San Juan Center
Tue 07:08:06 PM 18.2000 -67.8667 90° East 400 460 33,000  Level San Juan Center
Tue 07:09:06 PM 18.1833 -67.7333 97° East 410 472 33,000  Level San Juan Center
Tue 07:10:07 PM 18.1500 -67.6167 107° East 410 472 33,000  Level San Juan Center
Tue 07:11:07 PM 18.1333 -67.4833 97° East 410 472 33,000  Level San Juan Center
Tue 07:12:07 PM 18.1167 -67.3667 99° East 410 472 33,000  Level San Juan Center
Tue 07:13:08 PM 18.0833 -67.2500 107° East 410 472 33,000  Level San Juan Center
Tue 07:14:08 PM 18.0667 -67.1167 97° East 420 483 33,000  Level San Juan Center
Tue 07:15:09 PM 18.0500 -67.0000 99° East 410 472 33,000  Level San Juan Center
Tue 07:16:09 PM 18.0333 -66.8833 99° East 410 472 33,000  Level San Juan Center
Tue 07:17:09 PM 18.0000 -66.7667 107° East 410 472 33,000  Level San Juan Center
Tue 07:18:09 PM 17.9833 -66.6500 99° East 420 483 33,000  Level San Juan Center
Tue 07:19:10 PM 17.9667 -66.5333 99° East 420 483 33,000  Level San Juan Center
Tue 07:20:10 PM 17.9500 -66.4000 97° East 420 483 33,000  Level San Juan Center
Tue 07:21:10 PM 17.9333 -66.2833 99° East 410 472 33,000  Level San Juan Center
Tue 07:22:11 PM 17.9167 -66.1667 99° East 420 483 33,000  Level San Juan Center
Tue 07:23:11 PM 17.8833 -66.0500 107° East 420 483 33,000  Level San Juan Center
Tue 07:24:11 PM 17.8667 -65.9167 97° East 410 472 33,000  Level San Juan Center
Tue 07:25:11 PM 17.8500 -65.8167 100° East 410 472 33,000  Level San Juan Center
Tue 07:26:12 PM 17.8333 -65.6833 97° East 420 483 33,000  Level San Juan Center
Tue 07:27:12 PM 17.8000 -65.5667 107° East 420 483 33,000  Level San Juan Center
Tue 07:28:12 PM 17.7833 -65.4500 99° East 420 483 33,000  Level San Juan Center
Tue 07:29:12 PM 17.7667 -65.3333 99° East 420 483 33,000  Level San Juan Center
Tue 07:30:13 PM 17.7500 -65.2000 97° East 420 483 33,000  Level San Juan Center
Tue 07:31:13 PM 17.7167 -65.0833 107° East 420 483 33,000 -50 Level San Juan Center
Tue 07:32:13 PM 17.7000 -64.9667 99° East 420 483 32,900 -50 Descending San Juan Center
Tue 07:33:14 PM 17.6833 -64.8500 99° East 420 483 32,900 -99 Level San Juan Center
Tue 07:34:14 PM 17.6500 -64.7333 107° East 420 483 32,700 -1,050 Descending San Juan Center
Tue 07:35:14 PM 17.6333 -64.6000 97° East 440 506 30,800 -1,785 Descending San Juan Center
Tue 07:36:15 PM 17.6167 -64.4667 97° East 450 518 29,100 -1,736 Descending San Juan Center
Tue 07:37:15 PM 17.5833 -64.3333 105° East 450 518 27,300 -1,800 Descending San Juan Center
Tue 07:38:15 PM 17.5667 -64.2167 99° East 420 483 25,500 -1,785 Descending San Juan Center
Tue 07:39:16 PM 17.5500 -64.1000 99° East 410 472 23,700 -1,636 Descending San Juan Center
Tue 07:40:16 PM 17.5333 -63.9833 99° East 390 449 22,200 -1,500 Descending San Juan Center
Tue 07:41:16 PM 17.5000 -63.8833 109° East 370 426 20,700 -1,600 Descending San Juan Center
Tue 07:42:16 PM 17.4833 -63.7667 99° East 370 426 19,000 -1,835 Descending San Juan Center
Tue 07:43:17 PM 17.4667 -63.6667 100° East 370 426 17,000 -1,934 Descending San Juan Center
Tue 07:44:17 PM 17.4500 -63.5667 100° East 330 380 15,100 -1,950 Descending San Juan Center
Tue 07:45:17 PM 17.4333 -63.4833 102° East 290 334 13,100 -2,033 Descending San Juan Center
Tue 07:46:18 PM 17.4167 -63.4000 102° East 310 357 11,000 -1,934 Descending San Juan Center
Tue 07:47:18 PM 17.4000 -63.3167 102° East 290 334 9,200 -1,800 Descending San Juan Center
Tue 07:48:18 PM 17.3833 -63.2333 102° East 280 322 7,400 -1,587 Descending San Juan Center
Tue 07:49:19 PM 17.3667 -63.1667 105° East 250 288 6,000 -1,377 Descending San Juan Center
Tue 07:51:00 PM 17.3445 -62.9891 118° Southeast  Level FlightAware Approximate
Tue 07:58:00 PM 17.3112 -62.7187 North  Level Estimated
Tue 07:59:00 PM 17.3112 -62.7187 North  Level Estimated
Tue 08:00:00 PM 17.3112 -62.7187 North  Level Estimated
Tue 08:01:00 PM 17.3112 -62.7187 North  Level Estimated
Tue 08:02:00 PM 17.3112 -62.7187 North  Level Estimated
Tue 08:03:00 PM 17.3112 -62.7187 North  Level Estimated
Tue 08:04:00 PM 17.3112 -62.7187 North  Level Estimated
Tue 08:05:00 PM 17.3112 -62.7187 North  Level Estimated
Tue 08:06:00 PM 17.3112 -62.7187 North  Level Estimated
Tue 08:07:00 PM 17.3112 -62.7187 North  Level Estimated
Tue 08:08:00 PM 17.3112 -62.7187 North  Level Estimated
Tue 08:09:00 PM 17.3112 -62.7187 North  Level Estimated
Tue 08:10:00 PM 17.3112 -62.7187 North  Level Estimated
Tue 08:11:00 PM 17.3112 -62.7187 North  Level Estimated
Tue 08:12:00 PM 17.3112 -62.7187 North  Level Estimated
Tue 08:13:00 PM 17.3112 -62.7187 North  Level Estimated
Tue 08:14:00 PM 17.3112 -62.7187 North  Level Estimated
Tue 08:15:00 PM 17.3112 -62.7187 North  Level Estimated
Tue 08:16:00 PM 17.3112 -62.7187 North  Level Estimated
Tue 08:17:00 PM 17.3112 -62.7187 North  Level Estimated

Login

Don't have an account? Register now (free) for customized features, flight alerts, and more!